sensor_id;sensor_type;location;lat;lon;timestamp;P1;durP1;ratioP1;P2;durP2;ratioP2
9138;SDS011;4604;48.616;9.548;2023-04-01T00:01:51;2.57;;;0.80;;
9138;SDS011;4604;48.616;9.548;2023-04-01T00:04:17;0.87;;;0.73;;
9138;SDS011;4604;48.616;9.548;2023-04-01T00:06:45;0.93;;;0.53;;
9138;SDS011;4604;48.616;9.548;2023-04-01T00:09:13;2.17;;;0.70;;
9138;SDS011;4604;48.616;9.548;2023-04-01T00:11:40;0.43;;;0.30;;
9138;SDS011;4604;48.616;9.548;2023-04-01T00:14:07;3.53;;;0.50;;
9138;SDS011;4604;48.616;9.548;2023-04-01T00:16:34;2.10;;;0.33;;
9138;SDS011;4604;48.616;9.548;2023-04-01T00:19:00;0.50;;;0.43;;
9138;SDS011;4604;48.616;9.548;2023-04-01T00:21:30;3.20;;;0.77;;
9138;SDS011;4604;48.616;9.548;2023-04-01T00:23:59;0.83;;;0.40;;
9138;SDS011;4604;48.616;9.548;2023-04-01T00:26:27;1.33;;;0.70;;
9138;SDS011;4604;48.616;9.548;2023-04-01T00:28:53;2.60;;;0.40;;
9138;SDS011;4604;48.616;9.548;2023-04-01T00:31:20;0.63;;;0.57;;
9138;SDS011;4604;48.616;9.548;2023-04-01T00:33:47;0.40;;;0.37;;
9138;SDS011;4604;48.616;9.548;2023-04-01T00:36:15;0.60;;;0.60;;
9138;SDS011;4604;48.616;9.548;2023-04-01T00:38:43;1.30;;;0.40;;
9138;SDS011;4604;48.616;9.548;2023-04-01T00:41:11;1.93;;;0.70;;
9138;SDS011;4604;48.616;9.548;2023-04-01T00:43:41;2.83;;;0.63;;
9138;SDS011;4604;48.616;9.548;2023-04-01T00:46:08;0.93;;;0.40;;
9138;SDS011;4604;48.616;9.548;2023-04-01T00:48:35;1.93;;;0.90;;
9138;SDS011;4604;48.616;9.548;2023-04-01T00:51:05;1.17;;;0.53;;
9138;SDS011;4604;48.616;9.548;2023-04-01T00:53:34;1.77;;;0.67;;
9138;SDS011;4604;48.616;9.548;2023-04-01T00:56:07;1.57;;;0.50;;
9138;SDS011;4604;48.616;9.548;2023-04-01T00:58:38;0.50;;;0.40;;
9138;SDS011;4604;48.616;9.548;2023-04-01T01:01:10;1.93;;;0.50;;
9138;SDS011;4604;48.616;9.548;2023-04-01T01:03:37;0.50;;;0.50;;
9138;SDS011;4604;48.616;9.548;2023-04-01T01:06:07;0.50;;;0.50;;
9138;SDS011;4604;48.616;9.548;2023-04-01T01:08:45;2.50;;;0.33;;
9138;SDS011;4604;48.616;9.548;2023-04-01T01:11:19;0.77;;;0.43;;
9138;SDS011;4604;48.616;9.548;2023-04-01T01:13:58;0.40;;;0.40;;
9138;SDS011;4604;48.616;9.548;2023-04-01T01:16:34;1.00;;;0.60;;
9138;SDS011;4604;48.616;9.548;2023-04-01T01:19:07;2.40;;;0.70;;
9138;SDS011;4604;48.616;9.548;2023-04-01T01:21:47;0.50;;;0.50;;
9138;SDS011;4604;48.616;9.548;2023-04-01T01:24:30;0.87;;;0.50;;
9138;SDS011;4604;48.616;9.548;2023-04-01T01:27:19;0.33;;;0.30;;
9138;SDS011;4604;48.616;9.548;2023-04-01T01:33:06;1.47;;;0.50;;
9138;SDS011;4604;48.616;9.548;2023-04-01T01:35:44;0.60;;;0.60;;
9138;SDS011;4604;48.616;9.548;2023-04-01T01:38:15;1.30;;;0.40;;
9138;SDS011;4604;48.616;9.548;2023-04-01T01:40:45;0.93;;;0.30;;
9138;SDS011;4604;48.616;9.548;2023-04-01T01:43:17;0.70;;;0.43;;
9138;SDS011;4604;48.616;9.548;2023-04-01T01:45:48;2.00;;;0.40;;
9138;SDS011;4604;48.616;9.548;2023-04-01T01:48:18;0.23;;;0.23;;
9138;SDS011;4604;48.616;9.548;2023-04-01T01:50:47;1.20;;;0.50;;
9138;SDS011;4604;48.616;9.548;2023-04-01T01:53:15;0.60;;;0.40;;
9138;SDS011;4604;48.616;9.548;2023-04-01T01:55:42;0.83;;;0.50;;
9138;SDS011;4604;48.616;9.548;2023-04-01T01:58:13;0.60;;;0.50;;
9138;SDS011;4604;48.616;9.548;2023-04-01T02:00:44;0.27;;;0.27;;
9138;SDS011;4604;48.616;9.548;2023-04-01T02:03:15;0.57;;;0.30;;
9138;SDS011;4604;48.616;9.548;2023-04-01T02:05:43;0.10;;;0.10;;
9138;SDS011;4604;48.616;9.548;2023-04-01T02:08:12;1.17;;;0.80;;
9138;SDS011;4604;48.616;9.548;2023-04-01T02:10:43;0.97;;;0.17;;
9138;SDS011;4604;48.616;9.548;2023-04-01T02:13:18;0.73;;;0.20;;
9138;SDS011;4604;48.616;9.548;2023-04-01T02:15:52;0.13;;;0.13;;
9138;SDS011;4604;48.616;9.548;2023-04-01T02:18:27;1.60;;;0.40;;
9138;SDS011;4604;48.616;9.548;2023-04-01T02:20:56;1.07;;;0.40;;
9138;SDS011;4604;48.616;9.548;2023-04-01T02:23:26;0.23;;;0.13;;
9138;SDS011;4604;48.616;9.548;2023-04-01T02:25:55;1.20;;;0.30;;
9138;SDS011;4604;48.616;9.548;2023-04-01T02:28:22;1.70;;;0.40;;
9138;SDS011;4604;48.616;9.548;2023-04-01T02:30:49;0.53;;;0.23;;
9138;SDS011;4604;48.616;9.548;2023-04-01T02:33:17;0.83;;;0.47;;
9138;SDS011;4604;48.616;9.548;2023-04-01T02:35:45;1.03;;;0.20;;
9138;SDS011;4604;48.616;9.548;2023-04-01T02:38:12;2.30;;;0.20;;
9138;SDS011;4604;48.616;9.548;2023-04-01T02:40:43;0.87;;;0.40;;
9138;SDS011;4604;48.616;9.548;2023-04-01T02:43:11;0.63;;;0.20;;
9138;SDS011;4604;48.616;9.548;2023-04-01T02:45:38;1.77;;;0.30;;
9138;SDS011;4604;48.616;9.548;2023-04-01T02:48:05;0.40;;;0.30;;
9138;SDS011;4604;48.616;9.548;2023-04-01T02:50:32;0.37;;;0.20;;
9138;SDS011;4604;48.616;9.548;2023-04-01T02:52:59;0.73;;;0.33;;
9138;SDS011;4604;48.616;9.548;2023-04-01T02:55:27;0.33;;;0.20;;
9138;SDS011;4604;48.616;9.548;2023-04-01T02:57:56;1.20;;;0.27;;
9138;SDS011;4604;48.616;9.548;2023-04-01T03:00:23;0.10;;;0.10;;
9138;SDS011;4604;48.616;9.548;2023-04-01T03:02:50;1.57;;;0.30;;
9138;SDS011;4604;48.616;9.548;2023-04-01T03:05:17;0.10;;;0.10;;
9138;SDS011;4604;48.616;9.548;2023-04-01T03:07:44;0.73;;;0.20;;
9138;SDS011;4604;48.616;9.548;2023-04-01T03:10:11;0.30;;;0.30;;
9138;SDS011;4604;48.616;9.548;2023-04-01T03:12:37;0.20;;;0.20;;
9138;SDS011;4604;48.616;9.548;2023-04-01T03:15:06;0.10;;;0.10;;
9138;SDS011;4604;48.616;9.548;2023-04-01T03:17:35;0.87;;;0.40;;
9138;SDS011;4604;48.616;9.548;2023-04-01T03:20:02;0.10;;;0.10;;
9138;SDS011;4604;48.616;9.548;2023-04-01T03:22:30;1.97;;;0.30;;
9138;SDS011;4604;48.616;9.548;2023-04-01T03:24:56;1.20;;;0.37;;
9138;SDS011;4604;48.616;9.548;2023-04-01T03:27:23;0.53;;;0.33;;
9138;SDS011;4604;48.616;9.548;2023-04-01T03:29:50;1.50;;;0.30;;
9138;SDS011;4604;48.616;9.548;2023-04-01T03:32:18;1.40;;;0.40;;
9138;SDS011;4604;48.616;9.548;2023-04-01T03:34:44;0.20;;;0.20;;
9138;SDS011;4604;48.616;9.548;2023-04-01T03:37:11;0.13;;;0.13;;
9138;SDS011;4604;48.616;9.548;2023-04-01T03:39:39;0.30;;;0.30;;
9138;SDS011;4604;48.616;9.548;2023-04-01T03:42:05;1.17;;;0.20;;
9138;SDS011;4604;48.616;9.548;2023-04-01T03:44:32;0.20;;;0.20;;
9138;SDS011;4604;48.616;9.548;2023-04-01T03:47:00;1.70;;;0.20;;
9138;SDS011;4604;48.616;9.548;2023-04-01T03:49:28;1.70;;;0.30;;
9138;SDS011;4604;48.616;9.548;2023-04-01T03:51:54;0.30;;;0.30;;
9138;SDS011;4604;48.616;9.548;2023-04-01T03:54:21;0.53;;;0.20;;
9138;SDS011;4604;48.616;9.548;2023-04-01T03:56:48;0.93;;;0.20;;
9138;SDS011;4604;48.616;9.548;2023-04-01T03:59:14;0.63;;;0.20;;
9138;SDS011;4604;48.616;9.548;2023-04-01T04:01:41;0.10;;;0.10;;
9138;SDS011;4604;48.616;9.548;2023-04-01T04:04:10;1.10;;;0.40;;
9138;SDS011;4604;48.616;9.548;2023-04-01T04:06:39;0.67;;;0.40;;
9138;SDS011;4604;48.616;9.548;2023-04-01T04:09:05;0.20;;;0.20;;
9138;SDS011;4604;48.616;9.548;2023-04-01T04:11:32;1.33;;;0.30;;
9138;SDS011;4604;48.616;9.548;2023-04-01T04:13:59;1.23;;;0.50;;
9138;SDS011;4604;48.616;9.548;2023-04-01T04:16:25;0.23;;;0.23;;
9138;SDS011;4604;48.616;9.548;2023-04-01T04:18:52;0.87;;;0.47;;
9138;SDS011;4604;48.616;9.548;2023-04-01T04:21:19;0.50;;;0.50;;
9138;SDS011;4604;48.616;9.548;2023-04-01T04:23:47;0.70;;;0.47;;
9138;SDS011;4604;48.616;9.548;2023-04-01T04:26:14;1.80;;;0.60;;
9138;SDS011;4604;48.616;9.548;2023-04-01T04:28:41;2.00;;;0.50;;
9138;SDS011;4604;48.616;9.548;2023-04-01T04:31:08;3.33;;;0.90;;
9138;SDS011;4604;48.616;9.548;2023-04-01T04:33:35;0.33;;;0.20;;
9138;SDS011;4604;48.616;9.548;2023-04-01T04:36:03;1.20;;;0.33;;
9138;SDS011;4604;48.616;9.548;2023-04-01T04:38:30;0.67;;;0.40;;
9138;SDS011;4604;48.616;9.548;2023-04-01T04:40:58;0.50;;;0.50;;
9138;SDS011;4604;48.616;9.548;2023-04-01T04:43:25;0.53;;;0.27;;
9138;SDS011;4604;48.616;9.548;2023-04-01T04:45:52;0.30;;;0.20;;
9138;SDS011;4604;48.616;9.548;2023-04-01T04:48:18;0.73;;;0.60;;
9138;SDS011;4604;48.616;9.548;2023-04-01T04:50:48;0.33;;;0.30;;
9138;SDS011;4604;48.616;9.548;2023-04-01T04:53:18;1.40;;;0.40;;
9138;SDS011;4604;48.616;9.548;2023-04-01T04:55:46;1.53;;;0.50;;
9138;SDS011;4604;48.616;9.548;2023-04-01T04:58:15;0.57;;;0.33;;
9138;SDS011;4604;48.616;9.548;2023-04-01T05:00:43;1.07;;;0.53;;
9138;SDS011;4604;48.616;9.548;2023-04-01T05:03:10;1.67;;;0.67;;
9138;SDS011;4604;48.616;9.548;2023-04-01T05:05:37;0.93;;;0.40;;
9138;SDS011;4604;48.616;9.548;2023-04-01T05:08:05;0.57;;;0.23;;
9138;SDS011;4604;48.616;9.548;2023-04-01T05:10:32;0.50;;;0.40;;
9138;SDS011;4604;48.616;9.548;2023-04-01T05:13:00;0.10;;;0.10;;
9138;SDS011;4604;48.616;9.548;2023-04-01T05:15:28;2.40;;;0.60;;
9138;SDS011;4604;48.616;9.548;2023-04-01T05:17:55;1.33;;;0.40;;
9138;SDS011;4604;48.616;9.548;2023-04-01T05:20:22;0.90;;;0.40;;
9138;SDS011;4604;48.616;9.548;2023-04-01T05:22:48;3.47;;;0.67;;
9138;SDS011;4604;48.616;9.548;2023-04-01T05:25:15;1.47;;;0.53;;
9138;SDS011;4604;48.616;9.548;2023-04-01T05:27:45;0.47;;;0.20;;
9138;SDS011;4604;48.616;9.548;2023-04-01T05:30:11;1.60;;;0.43;;
9138;SDS011;4604;48.616;9.548;2023-04-01T05:32:40;0.67;;;0.30;;
9138;SDS011;4604;48.616;9.548;2023-04-01T05:35:07;1.03;;;0.50;;
9138;SDS011;4604;48.616;9.548;2023-04-01T05:37:34;1.57;;;0.30;;
9138;SDS011;4604;48.616;9.548;2023-04-01T05:40:01;6.00;;;0.43;;
9138;SDS011;4604;48.616;9.548;2023-04-01T05:42:28;2.70;;;0.63;;
9138;SDS011;4604;48.616;9.548;2023-04-01T05:44:56;1.20;;;0.63;;
9138;SDS011;4604;48.616;9.548;2023-04-01T05:47:23;0.83;;;0.60;;
9138;SDS011;4604;48.616;9.548;2023-04-01T05:49:51;1.60;;;0.30;;
9138;SDS011;4604;48.616;9.548;2023-04-01T05:52:18;0.23;;;0.20;;
9138;SDS011;4604;48.616;9.548;2023-04-01T05:54:44;0.50;;;0.30;;
9138;SDS011;4604;48.616;9.548;2023-04-01T05:57:11;0.80;;;0.63;;
9138;SDS011;4604;48.616;9.548;2023-04-01T05:59:38;0.27;;;0.27;;
9138;SDS011;4604;48.616;9.548;2023-04-01T06:02:05;2.40;;;0.60;;
9138;SDS011;4604;48.616;9.548;2023-04-01T06:04:32;0.27;;;0.27;;
9138;SDS011;4604;48.616;9.548;2023-04-01T06:07:08;2.60;;;0.50;;
9138;SDS011;4604;48.616;9.548;2023-04-01T06:09:38;0.63;;;0.40;;
9138;SDS011;4604;48.616;9.548;2023-04-01T06:12:13;0.80;;;0.23;;
9138;SDS011;4604;48.616;9.548;2023-04-01T06:14:50;1.90;;;0.50;;
9138;SDS011;4604;48.616;9.548;2023-04-01T06:17:26;2.17;;;0.57;;
9138;SDS011;4604;48.616;9.548;2023-04-01T06:20:05;0.50;;;0.40;;
9138;SDS011;4604;48.616;9.548;2023-04-01T06:25:46;1.30;;;0.47;;
9138;SDS011;4604;48.616;9.548;2023-04-01T06:31:37;0.80;;;0.43;;
9138;SDS011;4604;48.616;9.548;2023-04-01T06:34:27;1.30;;;0.70;;
9138;SDS011;4604;48.616;9.548;2023-04-01T06:37:10;0.50;;;0.40;;
9138;SDS011;4604;48.616;9.548;2023-04-01T06:39:59;0.50;;;0.50;;
9138;SDS011;4604;48.616;9.548;2023-04-01T06:42:51;1.60;;;0.80;;
9138;SDS011;4604;48.616;9.548;2023-04-01T06:45:29;1.03;;;0.47;;
9138;SDS011;4604;48.616;9.548;2023-04-01T06:48:09;1.40;;;0.43;;
9138;SDS011;4604;48.616;9.548;2023-04-01T06:50:48;0.50;;;0.30;;
9138;SDS011;4604;48.616;9.548;2023-04-01T06:53:24;0.30;;;0.27;;
9138;SDS011;4604;48.616;9.548;2023-04-01T06:56:00;0.50;;;0.40;;
9138;SDS011;4604;48.616;9.548;2023-04-01T06:58:37;0.20;;;0.20;;
9138;SDS011;4604;48.616;9.548;2023-04-01T07:01:09;0.53;;;0.50;;
9138;SDS011;4604;48.616;9.548;2023-04-01T07:03:41;0.33;;;0.33;;
9138;SDS011;4604;48.616;9.548;2023-04-01T07:06:13;0.20;;;0.20;;
9138;SDS011;4604;48.616;9.548;2023-04-01T07:08:46;0.10;;;0.10;;
9138;SDS011;4604;48.616;9.548;2023-04-01T07:11:17;0.57;;;0.20;;
9138;SDS011;4604;48.616;9.548;2023-04-01T07:13:53;0.33;;;0.30;;
9138;SDS011;4604;48.616;9.548;2023-04-01T07:16:24;0.67;;;0.20;;
9138;SDS011;4604;48.616;9.548;2023-04-01T07:18:56;0.30;;;0.30;;
9138;SDS011;4604;48.616;9.548;2023-04-01T07:21:31;0.10;;;0.10;;
9138;SDS011;4604;48.616;9.548;2023-04-01T07:24:04;2.83;;;1.00;;
9138;SDS011;4604;48.616;9.548;2023-04-01T07:26:35;0.20;;;0.20;;
9138;SDS011;4604;48.616;9.548;2023-04-01T07:29:08;0.83;;;0.23;;
9138;SDS011;4604;48.616;9.548;2023-04-01T07:31:41;0.63;;;0.37;;
9138;SDS011;4604;48.616;9.548;2023-04-01T07:34:17;0.93;;;0.60;;
9138;SDS011;4604;48.616;9.548;2023-04-01T07:36:48;0.20;;;0.20;;
9138;SDS011;4604;48.616;9.548;2023-04-01T07:39:24;0.20;;;0.20;;
9138;SDS011;4604;48.616;9.548;2023-04-01T07:42:02;0.40;;;0.20;;
9138;SDS011;4604;48.616;9.548;2023-04-01T07:44:38;1.20;;;0.37;;
9138;SDS011;4604;48.616;9.548;2023-04-01T07:47:16;1.03;;;0.53;;
9138;SDS011;4604;48.616;9.548;2023-04-01T07:49:59;1.13;;;0.40;;
9138;SDS011;4604;48.616;9.548;2023-04-01T07:52:35;0.63;;;0.40;;
9138;SDS011;4604;48.616;9.548;2023-04-01T07:55:10;0.20;;;0.20;;
9138;SDS011;4604;48.616;9.548;2023-04-01T07:57:43;0.50;;;0.33;;
9138;SDS011;4604;48.616;9.548;2023-04-01T08:00:20;0.60;;;0.40;;
9138;SDS011;4604;48.616;9.548;2023-04-01T08:02:54;0.27;;;0.27;;
9138;SDS011;4604;48.616;9.548;2023-04-01T08:05:33;2.03;;;0.77;;
9138;SDS011;4604;48.616;9.548;2023-04-01T08:08:09;0.50;;;0.50;;
9138;SDS011;4604;48.616;9.548;2023-04-01T08:10:46;0.87;;;0.70;;
9138;SDS011;4604;48.616;9.548;2023-04-01T08:13:20;1.30;;;0.60;;
9138;SDS011;4604;48.616;9.548;2023-04-01T08:15:58;3.67;;;2.00;;
9138;SDS011;4604;48.616;9.548;2023-04-01T08:18:34;1.60;;;0.60;;
9138;SDS011;4604;48.616;9.548;2023-04-01T08:21:10;0.53;;;0.53;;
9138;SDS011;4604;48.616;9.548;2023-04-01T08:23:43;1.57;;;0.40;;
9138;SDS011;4604;48.616;9.548;2023-04-01T08:26:12;1.00;;;0.83;;
9138;SDS011;4604;48.616;9.548;2023-04-01T08:28:50;0.40;;;0.40;;
9138;SDS011;4604;48.616;9.548;2023-04-01T08:31:22;0.40;;;0.40;;
9138;SDS011;4604;48.616;9.548;2023-04-01T08:33:57;0.57;;;0.43;;
9138;SDS011;4604;48.616;9.548;2023-04-01T08:36:25;1.20;;;0.70;;
9138;SDS011;4604;48.616;9.548;2023-04-01T08:38:57;1.53;;;0.40;;
9138;SDS011;4604;48.616;9.548;2023-04-01T08:44:39;0.20;;;0.20;;
9138;SDS011;4604;48.616;9.548;2023-04-01T08:50:53;0.30;;;0.30;;
9138;SDS011;4604;48.616;9.548;2023-04-01T08:53:37;0.40;;;0.40;;
9138;SDS011;4604;48.616;9.548;2023-04-01T08:56:18;1.23;;;0.60;;
9138;SDS011;4604;48.616;9.548;2023-04-01T09:01:55;0.30;;;0.30;;
9138;SDS011;4604;48.616;9.548;2023-04-01T09:04:39;0.20;;;0.20;;
9138;SDS011;4604;48.616;9.548;2023-04-01T09:07:21;1.03;;;0.50;;
9138;SDS011;4604;48.616;9.548;2023-04-01T09:10:18;0.40;;;0.27;;
9138;SDS011;4604;48.616;9.548;2023-04-01T09:12:57;0.20;;;0.20;;
9138;SDS011;4604;48.616;9.548;2023-04-01T09:15:48;0.20;;;0.20;;
9138;SDS011;4604;48.616;9.548;2023-04-01T09:18:42;0.50;;;0.20;;
9138;SDS011;4604;48.616;9.548;2023-04-01T09:21:23;2.43;;;0.30;;
9138;SDS011;4604;48.616;9.548;2023-04-01T09:24:13;3.67;;;0.50;;
9138;SDS011;4604;48.616;9.548;2023-04-01T09:26:56;0.47;;;0.37;;
9138;SDS011;4604;48.616;9.548;2023-04-01T09:29:34;1.30;;;1.20;;
9138;SDS011;4604;48.616;9.548;2023-04-01T09:32:24;1.80;;;1.20;;
9138;SDS011;4604;48.616;9.548;2023-04-01T09:35:07;1.27;;;1.17;;
9138;SDS011;4604;48.616;9.548;2023-04-01T09:37:52;1.27;;;0.83;;
9138;SDS011;4604;48.616;9.548;2023-04-01T09:40:28;0.67;;;0.50;;
9138;SDS011;4604;48.616;9.548;2023-04-01T09:43:06;0.77;;;0.77;;
9138;SDS011;4604;48.616;9.548;2023-04-01T09:45:58;0.47;;;0.20;;
9138;SDS011;4604;48.616;9.548;2023-04-01T09:48:46;1.80;;;0.90;;
9138;SDS011;4604;48.616;9.548;2023-04-01T09:51:33;0.57;;;0.30;;
9138;SDS011;4604;48.616;9.548;2023-04-01T09:54:13;0.60;;;0.20;;
9138;SDS011;4604;48.616;9.548;2023-04-01T10:03:16;0.40;;;0.30;;
9138;SDS011;4604;48.616;9.548;2023-04-01T10:15:21;0.30;;;0.30;;
9138;SDS011;4604;48.616;9.548;2023-04-01T10:21:22;1.08;;;0.50;;
9138;SDS011;4604;48.616;9.548;2023-04-01T10:27:33;0.73;;;0.67;;
9138;SDS011;4604;48.616;9.548;2023-04-01T10:33:31;0.47;;;0.40;;
9138;SDS011;4604;48.616;9.548;2023-04-01T10:36:19;0.33;;;0.33;;
9138;SDS011;4604;48.616;9.548;2023-04-01T10:42:12;0.40;;;0.40;;
9138;SDS011;4604;48.616;9.548;2023-04-01T10:48:13;1.03;;;0.83;;
9138;SDS011;4604;48.616;9.548;2023-04-01T10:50:52;0.50;;;0.50;;
9138;SDS011;4604;48.616;9.548;2023-04-01T10:53:38;0.50;;;0.50;;
9138;SDS011;4604;48.616;9.548;2023-04-01T10:59:15;0.43;;;0.43;;
9138;SDS011;4604;48.616;9.548;2023-04-01T11:24:00;0.40;;;0.40;;
9138;SDS011;4604;48.616;9.548;2023-04-01T11:26:49;0.33;;;0.23;;
9138;SDS011;4604;48.616;9.548;2023-04-01T11:38:25;0.30;;;0.27;;
9138;SDS011;4604;48.616;9.548;2023-04-01T11:41:12;0.60;;;0.50;;
9138;SDS011;4604;48.616;9.548;2023-04-01T11:43:49;0.87;;;0.60;;
9138;SDS011;4604;48.616;9.548;2023-04-01T11:46:31;1.07;;;0.43;;
9138;SDS011;4604;48.616;9.548;2023-04-01T11:49:07;0.30;;;0.30;;
9138;SDS011;4604;48.616;9.548;2023-04-01T11:51:57;0.40;;;0.40;;
9138;SDS011;4604;48.616;9.548;2023-04-01T11:57:35;0.40;;;0.30;;
9138;SDS011;4604;48.616;9.548;2023-04-01T12:00:14;0.27;;;0.20;;
9138;SDS011;4604;48.616;9.548;2023-04-01T12:02:55;0.63;;;0.40;;
9138;SDS011;4604;48.616;9.548;2023-04-01T12:05:38;0.20;;;0.20;;
9138;SDS011;4604;48.616;9.548;2023-04-01T12:08:16;0.50;;;0.30;;
9138;SDS011;4604;48.616;9.548;2023-04-01T12:10:51;0.40;;;0.40;;
9138;SDS011;4604;48.616;9.548;2023-04-01T12:13:30;0.40;;;0.40;;
9138;SDS011;4604;48.616;9.548;2023-04-01T12:16:05;0.40;;;0.40;;
9138;SDS011;4604;48.616;9.548;2023-04-01T12:18:43;0.37;;;0.37;;
9138;SDS011;4604;48.616;9.548;2023-04-01T12:21:20;0.57;;;0.40;;
9138;SDS011;4604;48.616;9.548;2023-04-01T12:23:56;0.30;;;0.30;;
9138;SDS011;4604;48.616;9.548;2023-04-01T12:26:42;0.73;;;0.30;;
9138;SDS011;4604;48.616;9.548;2023-04-01T12:29:24;0.33;;;0.33;;
9138;SDS011;4604;48.616;9.548;2023-04-01T12:32:16;0.77;;;0.40;;
9138;SDS011;4604;48.616;9.548;2023-04-01T12:34:53;0.30;;;0.30;;
9138;SDS011;4604;48.616;9.548;2023-04-01T12:37:34;1.10;;;0.60;;
9138;SDS011;4604;48.616;9.548;2023-04-01T12:40:17;0.70;;;0.40;;
9138;SDS011;4604;48.616;9.548;2023-04-01T12:43:05;0.40;;;0.40;;
9138;SDS011;4604;48.616;9.548;2023-04-01T12:45:49;0.40;;;0.40;;
9138;SDS011;4604;48.616;9.548;2023-04-01T12:48:35;0.30;;;0.30;;
9138;SDS011;4604;48.616;9.548;2023-04-01T12:54:25;1.20;;;0.77;;
9138;SDS011;4604;48.616;9.548;2023-04-01T12:57:34;0.57;;;0.40;;
9138;SDS011;4604;48.616;9.548;2023-04-01T13:06:22;1.27;;;0.70;;
9138;SDS011;4604;48.616;9.548;2023-04-01T13:08:57;1.57;;;0.80;;
9138;SDS011;4604;48.616;9.548;2023-04-01T13:11:43;0.73;;;0.70;;
9138;SDS011;4604;48.616;9.548;2023-04-01T13:14:24;0.53;;;0.53;;
9138;SDS011;4604;48.616;9.548;2023-04-01T13:17:06;0.80;;;0.70;;
9138;SDS011;4604;48.616;9.548;2023-04-01T13:19:40;0.73;;;0.73;;
9138;SDS011;4604;48.616;9.548;2023-04-01T13:22:16;1.07;;;1.00;;
9138;SDS011;4604;48.616;9.548;2023-04-01T13:24:49;0.80;;;0.77;;
9138;SDS011;4604;48.616;9.548;2023-04-01T13:27:27;0.70;;;0.70;;
9138;SDS011;4604;48.616;9.548;2023-04-01T13:30:02;0.70;;;0.70;;
9138;SDS011;4604;48.616;9.548;2023-04-01T13:32:44;1.27;;;0.53;;
9138;SDS011;4604;48.616;9.548;2023-04-01T13:41:13;1.43;;;0.83;;
9138;SDS011;4604;48.616;9.548;2023-04-01T13:43:49;0.60;;;0.60;;
9138;SDS011;4604;48.616;9.548;2023-04-01T13:49:11;2.07;;;1.23;;
9138;SDS011;4604;48.616;9.548;2023-04-01T13:55:14;1.43;;;1.27;;
9138;SDS011;4604;48.616;9.548;2023-04-01T13:58:00;0.50;;;0.50;;
9138;SDS011;4604;48.616;9.548;2023-04-01T14:00:52;0.33;;;0.33;;
9138;SDS011;4604;48.616;9.548;2023-04-01T14:06:47;0.50;;;0.47;;
9138;SDS011;4604;48.616;9.548;2023-04-01T14:09:36;0.67;;;0.30;;
9138;SDS011;4604;48.616;9.548;2023-04-01T14:12:16;0.70;;;0.70;;
9138;SDS011;4604;48.616;9.548;2023-04-01T14:14:59;1.53;;;1.07;;
9138;SDS011;4604;48.616;9.548;2023-04-01T14:17:53;1.20;;;1.10;;
9138;SDS011;4604;48.616;9.548;2023-04-01T14:20:33;1.73;;;1.30;;
9138;SDS011;4604;48.616;9.548;2023-04-01T14:23:11;0.70;;;0.53;;
9138;SDS011;4604;48.616;9.548;2023-04-01T14:25:54;0.53;;;0.53;;
9138;SDS011;4604;48.616;9.548;2023-04-01T14:28:32;0.63;;;0.63;;
9138;SDS011;4604;48.616;9.548;2023-04-01T14:31:19;0.63;;;0.60;;
9138;SDS011;4604;48.616;9.548;2023-04-01T14:33:56;1.47;;;1.10;;
9138;SDS011;4604;48.616;9.548;2023-04-01T14:36:42;0.67;;;0.63;;
9138;SDS011;4604;48.616;9.548;2023-04-01T14:39:28;0.60;;;0.50;;
9138;SDS011;4604;48.616;9.548;2023-04-01T14:42:12;0.90;;;0.70;;
9138;SDS011;4604;48.616;9.548;2023-04-01T14:45:07;0.63;;;0.50;;
9138;SDS011;4604;48.616;9.548;2023-04-01T14:47:50;0.93;;;0.80;;
9138;SDS011;4604;48.616;9.548;2023-04-01T14:50:20;0.67;;;0.40;;
9138;SDS011;4604;48.616;9.548;2023-04-01T14:52:55;1.43;;;1.00;;
9138;SDS011;4604;48.616;9.548;2023-04-01T14:55:27;1.03;;;0.93;;
9138;SDS011;4604;48.616;9.548;2023-04-01T14:57:59;3.07;;;2.07;;
9138;SDS011;4604;48.616;9.548;2023-04-01T15:03:27;0.53;;;0.53;;
9138;SDS011;4604;48.616;9.548;2023-04-01T15:06:01;0.57;;;0.40;;
9138;SDS011;4604;48.616;9.548;2023-04-01T15:09:02;0.87;;;0.60;;
9138;SDS011;4604;48.616;9.548;2023-04-01T15:11:40;0.40;;;0.40;;
9138;SDS011;4604;48.616;9.548;2023-04-01T15:14:27;0.53;;;0.37;;
9138;SDS011;4604;48.616;9.548;2023-04-01T15:17:16;0.33;;;0.33;;
9138;SDS011;4604;48.616;9.548;2023-04-01T15:19:57;0.50;;;0.50;;
9138;SDS011;4604;48.616;9.548;2023-04-01T15:22:39;0.43;;;0.40;;
9138;SDS011;4604;48.616;9.548;2023-04-01T15:25:23;0.30;;;0.30;;
9138;SDS011;4604;48.616;9.548;2023-04-01T15:28:04;2.10;;;1.10;;
9138;SDS011;4604;48.616;9.548;2023-04-01T15:30:37;0.87;;;0.80;;
9138;SDS011;4604;48.616;9.548;2023-04-01T15:33:29;0.73;;;0.70;;
9138;SDS011;4604;48.616;9.548;2023-04-01T15:36:29;0.60;;;0.60;;
9138;SDS011;4604;48.616;9.548;2023-04-01T15:39:10;0.70;;;0.47;;
9138;SDS011;4604;48.616;9.548;2023-04-01T15:41:43;0.43;;;0.43;;
9138;SDS011;4604;48.616;9.548;2023-04-01T15:44:26;0.47;;;0.40;;
9138;SDS011;4604;48.616;9.548;2023-04-01T15:47:06;1.27;;;0.60;;
9138;SDS011;4604;48.616;9.548;2023-04-01T15:49:55;0.80;;;0.80;;
9138;SDS011;4604;48.616;9.548;2023-04-01T15:52:42;2.00;;;1.47;;
9138;SDS011;4604;48.616;9.548;2023-04-01T15:55:18;2.07;;;1.40;;
9138;SDS011;4604;48.616;9.548;2023-04-01T15:57:53;2.33;;;1.63;;
9138;SDS011;4604;48.616;9.548;2023-04-01T16:00:30;1.53;;;1.00;;
9138;SDS011;4604;48.616;9.548;2023-04-01T16:03:09;2.17;;;1.57;;
9138;SDS011;4604;48.616;9.548;2023-04-01T16:05:50;1.10;;;1.00;;
9138;SDS011;4604;48.616;9.548;2023-04-01T16:08:50;2.40;;;1.30;;
9138;SDS011;4604;48.616;9.548;2023-04-01T16:11:29;3.13;;;1.40;;
9138;SDS011;4604;48.616;9.548;2023-04-01T16:14:11;1.17;;;1.07;;
9138;SDS011;4604;48.616;9.548;2023-04-01T16:16:53;1.13;;;0.80;;
9138;SDS011;4604;48.616;9.548;2023-04-01T16:19:32;2.10;;;1.80;;
9138;SDS011;4604;48.616;9.548;2023-04-01T16:22:07;0.80;;;0.80;;
9138;SDS011;4604;48.616;9.548;2023-04-01T16:24:39;1.87;;;0.80;;
9138;SDS011;4604;48.616;9.548;2023-04-01T16:27:10;1.17;;;0.90;;
9138;SDS011;4604;48.616;9.548;2023-04-01T16:29:43;1.17;;;1.03;;
9138;SDS011;4604;48.616;9.548;2023-04-01T16:32:17;1.40;;;1.00;;
9138;SDS011;4604;48.616;9.548;2023-04-01T16:34:54;2.50;;;1.20;;
9138;SDS011;4604;48.616;9.548;2023-04-01T16:37:32;2.13;;;1.23;;
9138;SDS011;4604;48.616;9.548;2023-04-01T16:40:09;1.17;;;0.80;;
9138;SDS011;4604;48.616;9.548;2023-04-01T16:42:43;1.93;;;0.93;;
9138;SDS011;4604;48.616;9.548;2023-04-01T16:45:19;1.37;;;0.97;;
9138;SDS011;4604;48.616;9.548;2023-04-01T16:47:53;0.67;;;0.67;;
9138;SDS011;4604;48.616;9.548;2023-04-01T16:50:23;0.70;;;0.70;;
9138;SDS011;4604;48.616;9.548;2023-04-01T16:53:01;3.17;;;1.43;;
9138;SDS011;4604;48.616;9.548;2023-04-01T16:55:42;1.07;;;0.97;;
9138;SDS011;4604;48.616;9.548;2023-04-01T16:58:15;1.87;;;0.77;;
9138;SDS011;4604;48.616;9.548;2023-04-01T17:00:49;1.83;;;0.90;;
9138;SDS011;4604;48.616;9.548;2023-04-01T17:03:22;0.93;;;0.87;;
9138;SDS011;4604;48.616;9.548;2023-04-01T17:06:04;0.90;;;0.73;;
9138;SDS011;4604;48.616;9.548;2023-04-01T17:08:48;1.97;;;1.30;;
9138;SDS011;4604;48.616;9.548;2023-04-01T17:11:27;1.23;;;0.70;;
9138;SDS011;4604;48.616;9.548;2023-04-01T17:14:06;1.10;;;1.00;;
9138;SDS011;4604;48.616;9.548;2023-04-01T17:16:47;1.70;;;0.80;;
9138;SDS011;4604;48.616;9.548;2023-04-01T17:19:37;3.03;;;1.20;;
9138;SDS011;4604;48.616;9.548;2023-04-01T17:22:18;1.10;;;0.80;;
9138;SDS011;4604;48.616;9.548;2023-04-01T17:24:58;3.10;;;1.30;;
9138;SDS011;4604;48.616;9.548;2023-04-01T17:27:44;2.10;;;1.30;;
9138;SDS011;4604;48.616;9.548;2023-04-01T17:30:22;1.87;;;1.37;;
9138;SDS011;4604;48.616;9.548;2023-04-01T17:33:10;1.60;;;1.13;;
9138;SDS011;4604;48.616;9.548;2023-04-01T17:35:57;2.03;;;1.70;;
9138;SDS011;4604;48.616;9.548;2023-04-01T17:38:35;3.23;;;2.00;;
9138;SDS011;4604;48.616;9.548;2023-04-01T17:41:19;2.50;;;1.33;;
9138;SDS011;4604;48.616;9.548;2023-04-01T17:43:56;1.30;;;1.10;;
9138;SDS011;4604;48.616;9.548;2023-04-01T17:46:32;1.43;;;1.30;;
9138;SDS011;4604;48.616;9.548;2023-04-01T17:49:11;2.97;;;1.50;;
9138;SDS011;4604;48.616;9.548;2023-04-01T17:51:51;3.57;;;1.40;;
9138;SDS011;4604;48.616;9.548;2023-04-01T17:54:27;2.07;;;1.83;;
9138;SDS011;4604;48.616;9.548;2023-04-01T17:57:07;1.97;;;1.40;;
9138;SDS011;4604;48.616;9.548;2023-04-01T17:59:55;1.50;;;0.90;;
9138;SDS011;4604;48.616;9.548;2023-04-01T18:02:29;1.60;;;1.50;;